sensor_id;sensor_type;location;lat;lon;timestamp;P1;durP1;ratioP1;P2;durP2;ratioP2
50104;SDS011;47690;39.202;-77.198;2023-03-23T00:01:13;6.18;;;4.45;;
50104;SDS011;47690;39.202;-77.198;2023-03-23T00:03:48;5.72;;;4.05;;
50104;SDS011;47690;39.202;-77.198;2023-03-23T00:06:18;5.40;;;4.32;;
50104;SDS011;47690;39.202;-77.198;2023-03-23T00:08:48;4.97;;;4.18;;
50104;SDS011;47690;39.202;-77.198;2023-03-23T00:11:20;5.90;;;4.32;;
50104;SDS011;47690;39.202;-77.198;2023-03-23T00:13:49;6.80;;;4.47;;
50104;SDS011;47690;39.202;-77.198;2023-03-23T00:16:21;5.00;;;4.20;;
50104;SDS011;47690;39.202;-77.198;2023-03-23T00:19:02;6.85;;;4.35;;
50104;SDS011;47690;39.202;-77.198;2023-03-23T00:21:33;6.43;;;4.57;;
50104;SDS011;47690;39.202;-77.198;2023-03-23T00:24:07;6.15;;;4.43;;
50104;SDS011;47690;39.202;-77.198;2023-03-23T00:26:39;5.47;;;3.95;;
50104;SDS011;47690;39.202;-77.198;2023-03-23T00:29:08;4.82;;;4.30;;
50104;SDS011;47690;39.202;-77.198;2023-03-23T00:31:50;5.22;;;4.25;;
50104;SDS011;47690;39.202;-77.198;2023-03-23T00:34:18;6.13;;;4.22;;
50104;SDS011;47690;39.202;-77.198;2023-03-23T00:36:52;5.85;;;4.43;;
50104;SDS011;47690;39.202;-77.198;2023-03-23T00:39:27;5.15;;;4.07;;
50104;SDS011;47690;39.202;-77.198;2023-03-23T00:41:59;6.07;;;4.57;;
50104;SDS011;47690;39.202;-77.198;2023-03-23T00:44:32;6.45;;;4.50;;
50104;SDS011;47690;39.202;-77.198;2023-03-23T00:47:04;6.05;;;4.43;;
50104;SDS011;47690;39.202;-77.198;2023-03-23T00:49:32;5.05;;;4.07;;
50104;SDS011;47690;39.202;-77.198;2023-03-23T00:52:02;6.30;;;4.75;;
50104;SDS011;47690;39.202;-77.198;2023-03-23T00:54:32;7.32;;;4.60;;
50104;SDS011;47690;39.202;-77.198;2023-03-23T00:57:00;5.22;;;4.60;;
50104;SDS011;47690;39.202;-77.198;2023-03-23T00:59:29;7.07;;;4.55;;
50104;SDS011;47690;39.202;-77.198;2023-03-23T01:01:56;5.28;;;4.32;;
50104;SDS011;47690;39.202;-77.198;2023-03-23T01:04:24;5.30;;;4.40;;
50104;SDS011;47690;39.202;-77.198;2023-03-23T01:06:56;5.82;;;4.40;;
50104;SDS011;47690;39.202;-77.198;2023-03-23T01:09:26;5.10;;;4.25;;
50104;SDS011;47690;39.202;-77.198;2023-03-23T01:11:55;6.13;;;4.15;;
50104;SDS011;47690;39.202;-77.198;2023-03-23T01:14:22;6.90;;;4.40;;
50104;SDS011;47690;39.202;-77.198;2023-03-23T01:16:51;6.40;;;4.25;;
50104;SDS011;47690;39.202;-77.198;2023-03-23T01:19:25;5.60;;;4.10;;
50104;SDS011;47690;39.202;-77.198;2023-03-23T01:21:59;6.82;;;4.00;;
50104;SDS011;47690;39.202;-77.198;2023-03-23T01:24:27;4.57;;;3.40;;
50104;SDS011;47690;39.202;-77.198;2023-03-23T01:26:59;5.30;;;3.88;;
50104;SDS011;47690;39.202;-77.198;2023-03-23T01:29:33;4.53;;;3.58;;
50104;SDS011;47690;39.202;-77.198;2023-03-23T01:32:01;5.13;;;3.63;;
50104;SDS011;47690;39.202;-77.198;2023-03-23T01:34:30;4.20;;;3.30;;
50104;SDS011;47690;39.202;-77.198;2023-03-23T01:36:59;4.53;;;3.22;;
50104;SDS011;47690;39.202;-77.198;2023-03-23T01:39:29;4.43;;;3.50;;
50104;SDS011;47690;39.202;-77.198;2023-03-23T01:41:59;4.03;;;3.55;;
50104;SDS011;47690;39.202;-77.198;2023-03-23T01:47:07;4.30;;;3.50;;
50104;SDS011;47690;39.202;-77.198;2023-03-23T01:49:37;6.90;;;3.45;;
50104;SDS011;47690;39.202;-77.198;2023-03-23T01:52:14;4.78;;;3.30;;
50104;SDS011;47690;39.202;-77.198;2023-03-23T01:54:52;4.53;;;3.17;;
50104;SDS011;47690;39.202;-77.198;2023-03-23T01:57:24;4.15;;;3.20;;
50104;SDS011;47690;39.202;-77.198;2023-03-23T02:00:00;4.63;;;3.30;;
50104;SDS011;47690;39.202;-77.198;2023-03-23T02:02:44;3.97;;;3.30;;
50104;SDS011;47690;39.202;-77.198;2023-03-23T02:05:30;3.70;;;3.08;;
50104;SDS011;47690;39.202;-77.198;2023-03-23T02:08:08;5.70;;;3.53;;
50104;SDS011;47690;39.202;-77.198;2023-03-23T02:10:36;3.45;;;3.05;;
50104;SDS011;47690;39.202;-77.198;2023-03-23T02:13:05;4.80;;;3.58;;
50104;SDS011;47690;39.202;-77.198;2023-03-23T02:15:46;4.28;;;3.40;;
50104;SDS011;47690;39.202;-77.198;2023-03-23T02:36:01;5.30;;;3.55;;
50104;SDS011;47690;39.202;-77.198;2023-03-23T02:38:54;5.70;;;4.03;;
50104;SDS011;47690;39.202;-77.198;2023-03-23T02:41:42;5.28;;;4.20;;
50104;SDS011;47690;39.202;-77.198;2023-03-23T02:44:12;7.85;;;4.55;;
50104;SDS011;47690;39.202;-77.198;2023-03-23T02:46:41;4.90;;;4.30;;
50104;SDS011;47690;39.202;-77.198;2023-03-23T02:49:11;5.38;;;4.15;;
50104;SDS011;47690;39.202;-77.198;2023-03-23T02:51:43;5.40;;;4.65;;
50104;SDS011;47690;39.202;-77.198;2023-03-23T02:54:13;5.03;;;4.53;;
50104;SDS011;47690;39.202;-77.198;2023-03-23T02:56:44;6.03;;;4.45;;
50104;SDS011;47690;39.202;-77.198;2023-03-23T02:59:21;5.60;;;4.45;;
50104;SDS011;47690;39.202;-77.198;2023-03-23T03:19:03;5.20;;;4.10;;
50104;SDS011;47690;39.202;-77.198;2023-03-23T03:21:40;4.78;;;4.00;;
50104;SDS011;47690;39.202;-77.198;2023-03-23T03:24:13;4.40;;;3.80;;
50104;SDS011;47690;39.202;-77.198;2023-03-23T03:26:48;5.85;;;4.15;;
50104;SDS011;47690;39.202;-77.198;2023-03-23T03:29:28;5.13;;;4.10;;
50104;SDS011;47690;39.202;-77.198;2023-03-23T03:32:01;5.15;;;4.28;;
50104;SDS011;47690;39.202;-77.198;2023-03-23T03:34:34;5.28;;;4.10;;
50104;SDS011;47690;39.202;-77.198;2023-03-23T03:37:03;5.40;;;4.05;;
50104;SDS011;47690;39.202;-77.198;2023-03-23T03:39:35;5.82;;;4.10;;
50104;SDS011;47690;39.202;-77.198;2023-03-23T03:42:06;4.65;;;3.85;;
50104;SDS011;47690;39.202;-77.198;2023-03-23T03:44:34;4.63;;;4.03;;
50104;SDS011;47690;39.202;-77.198;2023-03-23T03:47:06;5.70;;;4.00;;
50104;SDS011;47690;39.202;-77.198;2023-03-23T03:49:34;5.65;;;4.10;;
50104;SDS011;47690;39.202;-77.198;2023-03-23T03:52:05;5.65;;;4.28;;
50104;SDS011;47690;39.202;-77.198;2023-03-23T03:57:07;4.30;;;3.72;;
50104;SDS011;47690;39.202;-77.198;2023-03-23T03:59:35;5.15;;;4.07;;
50104;SDS011;47690;39.202;-77.198;2023-03-23T04:02:20;4.72;;;3.83;;
50104;SDS011;47690;39.202;-77.198;2023-03-23T04:04:49;4.38;;;3.70;;
50104;SDS011;47690;39.202;-77.198;2023-03-23T04:07:19;4.30;;;3.72;;
50104;SDS011;47690;39.202;-77.198;2023-03-23T04:09:48;5.03;;;3.88;;
50104;SDS011;47690;39.202;-77.198;2023-03-23T04:12:20;4.45;;;3.75;;
50104;SDS011;47690;39.202;-77.198;2023-03-23T04:14:57;5.50;;;3.97;;
50104;SDS011;47690;39.202;-77.198;2023-03-23T04:20:01;4.15;;;3.60;;
50104;SDS011;47690;39.202;-77.198;2023-03-23T04:22:35;4.53;;;3.50;;
50104;SDS011;47690;39.202;-77.198;2023-03-23T04:25:04;4.93;;;3.85;;
50104;SDS011;47690;39.202;-77.198;2023-03-23T04:27:36;6.00;;;3.72;;
50104;SDS011;47690;39.202;-77.198;2023-03-23T04:30:06;4.43;;;3.63;;
50104;SDS011;47690;39.202;-77.198;2023-03-23T04:32:49;5.10;;;3.85;;
50104;SDS011;47690;39.202;-77.198;2023-03-23T04:35:22;4.38;;;3.78;;
50104;SDS011;47690;39.202;-77.198;2023-03-23T04:38:27;4.38;;;3.67;;
50104;SDS011;47690;39.202;-77.198;2023-03-23T04:41:06;4.25;;;3.63;;
50104;SDS011;47690;39.202;-77.198;2023-03-23T04:43:46;5.70;;;4.15;;
50104;SDS011;47690;39.202;-77.198;2023-03-23T04:46:25;4.32;;;3.60;;
50104;SDS011;47690;39.202;-77.198;2023-03-23T04:48:59;4.45;;;3.38;;
50104;SDS011;47690;39.202;-77.198;2023-03-23T04:51:32;5.13;;;3.80;;
50104;SDS011;47690;39.202;-77.198;2023-03-23T04:54:11;4.85;;;3.22;;
50104;SDS011;47690;39.202;-77.198;2023-03-23T04:56:42;3.80;;;3.40;;
50104;SDS011;47690;39.202;-77.198;2023-03-23T04:59:14;4.68;;;3.85;;
50104;SDS011;47690;39.202;-77.198;2023-03-23T05:02:04;3.90;;;3.47;;
50104;SDS011;47690;39.202;-77.198;2023-03-23T05:04:33;5.93;;;3.75;;
50104;SDS011;47690;39.202;-77.198;2023-03-23T05:07:22;4.38;;;3.38;;
50104;SDS011;47690;39.202;-77.198;2023-03-23T05:09:55;4.40;;;3.67;;
50104;SDS011;47690;39.202;-77.198;2023-03-23T05:12:30;5.88;;;3.85;;
50104;SDS011;47690;39.202;-77.198;2023-03-23T05:15:02;5.13;;;3.42;;
50104;SDS011;47690;39.202;-77.198;2023-03-23T05:17:31;5.75;;;3.83;;
50104;SDS011;47690;39.202;-77.198;2023-03-23T05:20:03;5.60;;;3.80;;
50104;SDS011;47690;39.202;-77.198;2023-03-23T05:22:45;4.20;;;3.30;;
50104;SDS011;47690;39.202;-77.198;2023-03-23T05:25:26;4.80;;;3.75;;
50104;SDS011;47690;39.202;-77.198;2023-03-23T05:28:01;4.70;;;3.75;;
50104;SDS011;47690;39.202;-77.198;2023-03-23T05:30:48;6.45;;;4.07;;
50104;SDS011;47690;39.202;-77.198;2023-03-23T05:33:18;4.80;;;3.80;;
50104;SDS011;47690;39.202;-77.198;2023-03-23T05:35:51;4.50;;;3.60;;
50104;SDS011;47690;39.202;-77.198;2023-03-23T05:38:24;4.32;;;3.70;;
50104;SDS011;47690;39.202;-77.198;2023-03-23T05:40:58;4.72;;;3.42;;
50104;SDS011;47690;39.202;-77.198;2023-03-23T05:43:36;4.10;;;3.38;;
50104;SDS011;47690;39.202;-77.198;2023-03-23T05:46:18;3.95;;;3.38;;
50104;SDS011;47690;39.202;-77.198;2023-03-23T05:48:48;6.13;;;3.80;;
50104;SDS011;47690;39.202;-77.198;2023-03-23T05:51:20;5.30;;;3.88;;
50104;SDS011;47690;39.202;-77.198;2023-03-23T05:53:49;4.43;;;3.72;;
50104;SDS011;47690;39.202;-77.198;2023-03-23T05:56:18;4.60;;;3.70;;
50104;SDS011;47690;39.202;-77.198;2023-03-23T05:59:26;4.22;;;3.70;;
50104;SDS011;47690;39.202;-77.198;2023-03-23T06:01:56;4.47;;;3.58;;
50104;SDS011;47690;39.202;-77.198;2023-03-23T06:04:26;4.95;;;3.92;;
50104;SDS011;47690;39.202;-77.198;2023-03-23T06:07:25;4.70;;;3.80;;
50104;SDS011;47690;39.202;-77.198;2023-03-23T06:10:03;4.85;;;3.78;;
50104;SDS011;47690;39.202;-77.198;2023-03-23T06:12:43;4.30;;;3.53;;
50104;SDS011;47690;39.202;-77.198;2023-03-23T06:15:17;4.97;;;3.40;;
50104;SDS011;47690;39.202;-77.198;2023-03-23T06:18:11;4.70;;;3.70;;
50104;SDS011;47690;39.202;-77.198;2023-03-23T06:21:00;4.57;;;3.50;;
50104;SDS011;47690;39.202;-77.198;2023-03-23T06:23:46;5.13;;;3.88;;
50104;SDS011;47690;39.202;-77.198;2023-03-23T06:26:17;5.78;;;3.75;;
50104;SDS011;47690;39.202;-77.198;2023-03-23T06:28:52;4.55;;;3.75;;
50104;SDS011;47690;39.202;-77.198;2023-03-23T06:31:21;5.53;;;3.80;;
50104;SDS011;47690;39.202;-77.198;2023-03-23T06:33:49;5.55;;;3.80;;
50104;SDS011;47690;39.202;-77.198;2023-03-23T06:36:24;4.35;;;3.90;;
50104;SDS011;47690;39.202;-77.198;2023-03-23T06:39:10;5.20;;;3.60;;
50104;SDS011;47690;39.202;-77.198;2023-03-23T06:42:08;4.70;;;3.80;;
50104;SDS011;47690;39.202;-77.198;2023-03-23T06:44:45;5.00;;;3.65;;
50104;SDS011;47690;39.202;-77.198;2023-03-23T06:47:13;5.07;;;3.90;;
50104;SDS011;47690;39.202;-77.198;2023-03-23T06:49:45;4.30;;;3.58;;
50104;SDS011;47690;39.202;-77.198;2023-03-23T06:52:19;4.47;;;3.90;;
50104;SDS011;47690;39.202;-77.198;2023-03-23T06:54:49;4.15;;;3.65;;
50104;SDS011;47690;39.202;-77.198;2023-03-23T06:57:18;5.43;;;3.80;;
50104;SDS011;47690;39.202;-77.198;2023-03-23T06:59:49;4.85;;;3.88;;
50104;SDS011;47690;39.202;-77.198;2023-03-23T07:02:17;7.75;;;4.22;;
50104;SDS011;47690;39.202;-77.198;2023-03-23T07:04:49;4.15;;;3.70;;
50104;SDS011;47690;39.202;-77.198;2023-03-23T07:07:20;5.55;;;4.40;;
50104;SDS011;47690;39.202;-77.198;2023-03-23T07:09:56;5.32;;;3.95;;
50104;SDS011;47690;39.202;-77.198;2023-03-23T07:12:26;4.53;;;3.78;;
50104;SDS011;47690;39.202;-77.198;2023-03-23T07:14:55;4.75;;;3.85;;
50104;SDS011;47690;39.202;-77.198;2023-03-23T07:17:24;5.28;;;4.20;;
50104;SDS011;47690;39.202;-77.198;2023-03-23T07:20:16;4.88;;;3.75;;
50104;SDS011;47690;39.202;-77.198;2023-03-23T07:22:45;4.78;;;3.83;;
50104;SDS011;47690;39.202;-77.198;2023-03-23T07:25:24;6.28;;;3.92;;
50104;SDS011;47690;39.202;-77.198;2023-03-23T07:27:54;5.18;;;3.95;;
50104;SDS011;47690;39.202;-77.198;2023-03-23T07:30:22;5.30;;;4.30;;
50104;SDS011;47690;39.202;-77.198;2023-03-23T07:32:51;5.65;;;4.30;;
50104;SDS011;47690;39.202;-77.198;2023-03-23T07:35:19;5.40;;;4.22;;
50104;SDS011;47690;39.202;-77.198;2023-03-23T07:37:59;5.05;;;4.15;;
50104;SDS011;47690;39.202;-77.198;2023-03-23T07:40:27;5.63;;;4.38;;
50104;SDS011;47690;39.202;-77.198;2023-03-23T07:43:07;4.80;;;3.88;;
50104;SDS011;47690;39.202;-77.198;2023-03-23T07:45:55;5.90;;;4.63;;
50104;SDS011;47690;39.202;-77.198;2023-03-23T07:48:28;6.43;;;4.85;;
50104;SDS011;47690;39.202;-77.198;2023-03-23T07:50:58;5.68;;;4.32;;
50104;SDS011;47690;39.202;-77.198;2023-03-23T07:53:30;5.40;;;4.47;;
50104;SDS011;47690;39.202;-77.198;2023-03-23T07:56:11;6.05;;;4.50;;
50104;SDS011;47690;39.202;-77.198;2023-03-23T07:59:11;4.65;;;4.00;;
50104;SDS011;47690;39.202;-77.198;2023-03-23T08:01:42;5.85;;;4.60;;
50104;SDS011;47690;39.202;-77.198;2023-03-23T08:04:30;5.00;;;4.30;;
50104;SDS011;47690;39.202;-77.198;2023-03-23T08:07:26;5.97;;;4.30;;
50104;SDS011;47690;39.202;-77.198;2023-03-23T08:10:15;5.25;;;4.38;;
50104;SDS011;47690;39.202;-77.198;2023-03-23T08:13:05;5.70;;;4.47;;
50104;SDS011;47690;39.202;-77.198;2023-03-23T08:15:51;5.82;;;4.80;;
50104;SDS011;47690;39.202;-77.198;2023-03-23T08:18:55;5.00;;;4.45;;
50104;SDS011;47690;39.202;-77.198;2023-03-23T08:21:37;6.90;;;4.47;;
50104;SDS011;47690;39.202;-77.198;2023-03-23T08:24:37;5.43;;;4.80;;
50104;SDS011;47690;39.202;-77.198;2023-03-23T08:27:26;6.22;;;5.00;;
50104;SDS011;47690;39.202;-77.198;2023-03-23T08:30:14;6.22;;;5.18;;
50104;SDS011;47690;39.202;-77.198;2023-03-23T08:32:57;6.47;;;5.18;;
50104;SDS011;47690;39.202;-77.198;2023-03-23T08:35:45;6.15;;;5.25;;
50104;SDS011;47690;39.202;-77.198;2023-03-23T08:38:51;5.95;;;4.82;;
50104;SDS011;47690;39.202;-77.198;2023-03-23T08:41:23;6.50;;;5.22;;
50104;SDS011;47690;39.202;-77.198;2023-03-23T08:44:04;6.32;;;5.40;;
50104;SDS011;47690;39.202;-77.198;2023-03-23T08:46:47;6.78;;;5.03;;
50104;SDS011;47690;39.202;-77.198;2023-03-23T08:49:26;6.70;;;5.70;;
50104;SDS011;47690;39.202;-77.198;2023-03-23T08:52:15;7.60;;;5.72;;
50104;SDS011;47690;39.202;-77.198;2023-03-23T08:54:51;7.18;;;5.88;;
50104;SDS011;47690;39.202;-77.198;2023-03-23T08:57:31;8.65;;;5.57;;
50104;SDS011;47690;39.202;-77.198;2023-03-23T09:00:19;7.40;;;5.72;;
50104;SDS011;47690;39.202;-77.198;2023-03-23T09:03:09;6.68;;;5.35;;
50104;SDS011;47690;39.202;-77.198;2023-03-23T09:05:58;7.03;;;5.63;;
50104;SDS011;47690;39.202;-77.198;2023-03-23T09:08:36;7.45;;;5.55;;
50104;SDS011;47690;39.202;-77.198;2023-03-23T09:11:05;7.88;;;6.30;;
50104;SDS011;47690;39.202;-77.198;2023-03-23T09:13:37;6.82;;;5.63;;
50104;SDS011;47690;39.202;-77.198;2023-03-23T09:16:09;7.78;;;6.38;;
50104;SDS011;47690;39.202;-77.198;2023-03-23T09:18:36;6.60;;;5.90;;
50104;SDS011;47690;39.202;-77.198;2023-03-23T09:21:04;7.40;;;6.05;;
50104;SDS011;47690;39.202;-77.198;2023-03-23T09:23:33;6.85;;;6.03;;
50104;SDS011;47690;39.202;-77.198;2023-03-23T09:26:02;8.07;;;6.15;;
50104;SDS011;47690;39.202;-77.198;2023-03-23T09:28:31;7.35;;;6.20;;
50104;SDS011;47690;39.202;-77.198;2023-03-23T09:31:00;7.15;;;6.03;;
50104;SDS011;47690;39.202;-77.198;2023-03-23T09:33:29;6.93;;;6.13;;
50104;SDS011;47690;39.202;-77.198;2023-03-23T09:36:00;7.25;;;6.38;;
50104;SDS011;47690;39.202;-77.198;2023-03-23T09:38:29;7.07;;;6.18;;
50104;SDS011;47690;39.202;-77.198;2023-03-23T09:52:44;8.02;;;5.95;;
50104;SDS011;47690;39.202;-77.198;2023-03-23T09:55:20;7.97;;;6.53;;
50104;SDS011;47690;39.202;-77.198;2023-03-23T09:57:55;7.72;;;6.55;;
50104;SDS011;47690;39.202;-77.198;2023-03-23T10:00:36;8.23;;;6.70;;
50104;SDS011;47690;39.202;-77.198;2023-03-23T10:03:10;7.97;;;6.85;;
50104;SDS011;47690;39.202;-77.198;2023-03-23T10:05:45;8.05;;;6.75;;
50104;SDS011;47690;39.202;-77.198;2023-03-23T10:20:29;8.35;;;6.68;;
50104;SDS011;47690;39.202;-77.198;2023-03-23T10:22:39;8.15;;;6.65;;
50104;SDS011;47690;39.202;-77.198;2023-03-23T10:25:31;8.35;;;6.53;;
50104;SDS011;47690;39.202;-77.198;2023-03-23T10:28:06;7.70;;;6.47;;
50104;SDS011;47690;39.202;-77.198;2023-03-23T10:30:45;7.43;;;6.20;;
50104;SDS011;47690;39.202;-77.198;2023-03-23T10:33:28;8.82;;;7.05;;
50104;SDS011;47690;39.202;-77.198;2023-03-23T10:41:44;8.77;;;6.43;;
50104;SDS011;47690;39.202;-77.198;2023-03-23T10:44:16;8.82;;;6.93;;
50104;SDS011;47690;39.202;-77.198;2023-03-23T10:49:42;8.23;;;6.70;;
50104;SDS011;47690;39.202;-77.198;2023-03-23T10:52:23;7.32;;;6.20;;
50104;SDS011;47690;39.202;-77.198;2023-03-23T10:57:39;8.13;;;6.63;;
50104;SDS011;47690;39.202;-77.198;2023-03-23T11:02:44;8.45;;;7.07;;
50104;SDS011;47690;39.202;-77.198;2023-03-23T11:05:32;7.80;;;6.72;;
50104;SDS011;47690;39.202;-77.198;2023-03-23T11:08:01;8.15;;;6.72;;
50104;SDS011;47690;39.202;-77.198;2023-03-23T11:10:38;8.73;;;7.30;;
50104;SDS011;47690;39.202;-77.198;2023-03-23T11:13:21;8.38;;;7.07;;
50104;SDS011;47690;39.202;-77.198;2023-03-23T11:15:56;7.95;;;6.65;;
50104;SDS011;47690;39.202;-77.198;2023-03-23T11:18:26;7.95;;;6.50;;
50104;SDS011;47690;39.202;-77.198;2023-03-23T11:21:11;8.30;;;7.10;;
50104;SDS011;47690;39.202;-77.198;2023-03-23T11:23:48;9.30;;;7.30;;
50104;SDS011;47690;39.202;-77.198;2023-03-23T11:27:10;7.70;;;6.28;;
50104;SDS011;47690;39.202;-77.198;2023-03-23T11:29:49;7.22;;;6.43;;
50104;SDS011;47690;39.202;-77.198;2023-03-23T11:32:29;8.70;;;6.18;;
50104;SDS011;47690;39.202;-77.198;2023-03-23T11:34:59;9.10;;;6.75;;
50104;SDS011;47690;39.202;-77.198;2023-03-23T11:40:20;8.45;;;6.88;;
50104;SDS011;47690;39.202;-77.198;2023-03-23T11:42:59;7.45;;;6.60;;
50104;SDS011;47690;39.202;-77.198;2023-03-23T11:48:52;7.88;;;6.47;;
50104;SDS011;47690;39.202;-77.198;2023-03-23T11:51:36;7.75;;;6.32;;
50104;SDS011;47690;39.202;-77.198;2023-03-23T11:54:24;7.95;;;6.70;;
50104;SDS011;47690;39.202;-77.198;2023-03-23T11:56:59;8.05;;;6.47;;
50104;SDS011;47690;39.202;-77.198;2023-03-23T11:59:28;8.98;;;6.85;;
50104;SDS011;47690;39.202;-77.198;2023-03-23T12:02:43;8.27;;;6.90;;
50104;SDS011;47690;39.202;-77.198;2023-03-23T12:05:20;8.15;;;6.22;;
50104;SDS011;47690;39.202;-77.198;2023-03-23T12:07:58;7.80;;;6.43;;
50104;SDS011;47690;39.202;-77.198;2023-03-23T12:11:09;7.57;;;6.43;;
50104;SDS011;47690;39.202;-77.198;2023-03-23T12:13:58;8.00;;;6.30;;
50104;SDS011;47690;39.202;-77.198;2023-03-23T12:16:55;6.63;;;5.85;;
50104;SDS011;47690;39.202;-77.198;2023-03-23T12:31:17;9.40;;;7.10;;
50104;SDS011;47690;39.202;-77.198;2023-03-23T12:48:39;8.13;;;6.65;;
50104;SDS011;47690;39.202;-77.198;2023-03-23T12:56:35;7.47;;;6.70;;
50104;SDS011;47690;39.202;-77.198;2023-03-23T12:59:26;7.10;;;6.22;;
50104;SDS011;47690;39.202;-77.198;2023-03-23T13:04:44;7.75;;;6.88;;
50104;SDS011;47690;39.202;-77.198;2023-03-23T13:07:24;7.03;;;6.32;;
50104;SDS011;47690;39.202;-77.198;2023-03-23T13:10:07;8.52;;;6.97;;
50104;SDS011;47690;39.202;-77.198;2023-03-23T13:12:57;8.35;;;6.22;;
50104;SDS011;47690;39.202;-77.198;2023-03-23T13:15:40;8.07;;;6.68;;
50104;SDS011;47690;39.202;-77.198;2023-03-23T13:24:03;7.70;;;6.18;;
50104;SDS011;47690;39.202;-77.198;2023-03-23T13:26:37;7.93;;;6.70;;
50104;SDS011;47690;39.202;-77.198;2023-03-23T13:29:11;7.90;;;6.78;;
50104;SDS011;47690;39.202;-77.198;2023-03-23T13:31:41;7.50;;;6.50;;
50104;SDS011;47690;39.202;-77.198;2023-03-23T13:36:53;8.80;;;6.95;;
50104;SDS011;47690;39.202;-77.198;2023-03-23T13:42:47;8.77;;;6.63;;
50104;SDS011;47690;39.202;-77.198;2023-03-23T13:45:22;7.95;;;6.47;;
50104;SDS011;47690;39.202;-77.198;2023-03-23T13:48:04;10.00;;;7.32;;
50104;SDS011;47690;39.202;-77.198;2023-03-23T13:53:13;8.00;;;6.53;;
50104;SDS011;47690;39.202;-77.198;2023-03-23T13:55:48;9.05;;;7.13;;
50104;SDS011;47690;39.202;-77.198;2023-03-23T13:58:43;8.33;;;6.70;;
50104;SDS011;47690;39.202;-77.198;2023-03-23T14:03:47;8.02;;;5.65;;
50104;SDS011;47690;39.202;-77.198;2023-03-23T14:06:22;8.93;;;6.60;;
50104;SDS011;47690;39.202;-77.198;2023-03-23T14:09:05;8.07;;;6.72;;
50104;SDS011;47690;39.202;-77.198;2023-03-23T14:11:46;8.27;;;6.43;;
50104;SDS011;47690;39.202;-77.198;2023-03-23T14:14:44;9.60;;;6.53;;
50104;SDS011;47690;39.202;-77.198;2023-03-23T14:17:18;9.15;;;6.90;;
50104;SDS011;47690;39.202;-77.198;2023-03-23T14:19:56;7.68;;;6.63;;
50104;SDS011;47690;39.202;-77.198;2023-03-23T14:22:40;9.25;;;6.97;;
50104;SDS011;47690;39.202;-77.198;2023-03-23T14:25:13;8.73;;;7.00;;
50104;SDS011;47690;39.202;-77.198;2023-03-23T14:27:44;8.52;;;6.63;;
50104;SDS011;47690;39.202;-77.198;2023-03-23T14:30:16;10.20;;;7.70;;
50104;SDS011;47690;39.202;-77.198;2023-03-23T14:32:47;8.65;;;6.93;;
50104;SDS011;47690;39.202;-77.198;2023-03-23T14:35:31;8.52;;;6.90;;
50104;SDS011;47690;39.202;-77.198;2023-03-23T14:38:00;9.40;;;7.10;;
50104;SDS011;47690;39.202;-77.198;2023-03-23T14:40:30;9.10;;;7.45;;
50104;SDS011;47690;39.202;-77.198;2023-03-23T14:43:01;9.68;;;7.20;;
50104;SDS011;47690;39.202;-77.198;2023-03-23T14:45:29;9.50;;;7.38;;
50104;SDS011;47690;39.202;-77.198;2023-03-23T14:48:01;8.80;;;7.10;;
50104;SDS011;47690;39.202;-77.198;2023-03-23T14:50:41;9.55;;;6.95;;
50104;SDS011;47690;39.202;-77.198;2023-03-23T14:53:23;8.15;;;6.80;;
50104;SDS011;47690;39.202;-77.198;2023-03-23T14:56:02;8.95;;;6.97;;
50104;SDS011;47690;39.202;-77.198;2023-03-23T14:58:48;8.82;;;7.03;;
50104;SDS011;47690;39.202;-77.198;2023-03-23T15:01:18;8.57;;;6.57;;
50104;SDS011;47690;39.202;-77.198;2023-03-23T15:04:08;8.25;;;6.95;;
50104;SDS011;47690;39.202;-77.198;2023-03-23T15:06:43;8.68;;;6.75;;
50104;SDS011;47690;39.202;-77.198;2023-03-23T15:09:17;8.95;;;6.82;;
50104;SDS011;47690;39.202;-77.198;2023-03-23T15:11:54;8.05;;;6.93;;
50104;SDS011;47690;39.202;-77.198;2023-03-23T15:14:36;9.15;;;6.90;;
50104;SDS011;47690;39.202;-77.198;2023-03-23T15:17:34;9.07;;;6.85;;
50104;SDS011;47690;39.202;-77.198;2023-03-23T15:20:07;8.10;;;6.55;;
50104;SDS011;47690;39.202;-77.198;2023-03-23T15:22:52;7.30;;;6.45;;
50104;SDS011;47690;39.202;-77.198;2023-03-23T15:25:33;7.78;;;6.53;;
50104;SDS011;47690;39.202;-77.198;2023-03-23T15:28:52;7.18;;;6.10;;
50104;SDS011;47690;39.202;-77.198;2023-03-23T15:31:13;7.85;;;6.63;;
50104;SDS011;47690;39.202;-77.198;2023-03-23T15:33:41;9.80;;;6.80;;
50104;SDS011;47690;39.202;-77.198;2023-03-23T15:36:14;8.80;;;6.70;;
50104;SDS011;47690;39.202;-77.198;2023-03-23T15:38:44;8.95;;;6.63;;
50104;SDS011;47690;39.202;-77.198;2023-03-23T15:41:21;7.75;;;6.50;;
50104;SDS011;47690;39.202;-77.198;2023-03-23T15:43:53;9.75;;;6.88;;
50104;SDS011;47690;39.202;-77.198;2023-03-23T15:46:32;9.38;;;6.85;;
50104;SDS011;47690;39.202;-77.198;2023-03-23T15:51:30;9.07;;;6.35;;
50104;SDS011;47690;39.202;-77.198;2023-03-23T15:53:59;8.32;;;6.53;;
50104;SDS011;47690;39.202;-77.198;2023-03-23T15:56:27;9.20;;;6.85;;
50104;SDS011;47690;39.202;-77.198;2023-03-23T15:58:59;7.70;;;6.53;;
50104;SDS011;47690;39.202;-77.198;2023-03-23T16:01:29;7.40;;;6.45;;
50104;SDS011;47690;39.202;-77.198;2023-03-23T16:04:06;7.88;;;6.10;;
50104;SDS011;47690;39.202;-77.198;2023-03-23T16:06:41;7.95;;;5.97;;
50104;SDS011;47690;39.202;-77.198;2023-03-23T16:09:15;8.75;;;6.40;;
50104;SDS011;47690;39.202;-77.198;2023-03-23T16:11:46;8.23;;;6.50;;
50104;SDS011;47690;39.202;-77.198;2023-03-23T16:14:16;8.93;;;6.25;;
50104;SDS011;47690;39.202;-77.198;2023-03-23T16:16:47;7.10;;;6.10;;
50104;SDS011;47690;39.202;-77.198;2023-03-23T16:19:20;9.10;;;6.05;;
50104;SDS011;47690;39.202;-77.198;2023-03-23T16:21:51;7.78;;;5.68;;
50104;SDS011;47690;39.202;-77.198;2023-03-23T16:24:20;8.10;;;5.95;;
50104;SDS011;47690;39.202;-77.198;2023-03-23T16:26:49;7.68;;;5.55;;
50104;SDS011;47690;39.202;-77.198;2023-03-23T16:29:18;6.28;;;5.65;;
50104;SDS011;47690;39.202;-77.198;2023-03-23T16:32:09;7.57;;;5.50;;
50104;SDS011;47690;39.202;-77.198;2023-03-23T16:34:39;6.50;;;5.50;;
50104;SDS011;47690;39.202;-77.198;2023-03-23T16:37:10;6.10;;;5.30;;
50104;SDS011;47690;39.202;-77.198;2023-03-23T16:39:39;7.93;;;5.63;;
50104;SDS011;47690;39.202;-77.198;2023-03-23T16:42:09;6.35;;;5.05;;
50104;SDS011;47690;39.202;-77.198;2023-03-23T16:44:38;7.13;;;5.55;;
50104;SDS011;47690;39.202;-77.198;2023-03-23T16:47:06;5.70;;;4.97;;
50104;SDS011;47690;39.202;-77.198;2023-03-23T16:49:36;5.53;;;4.82;;
50104;SDS011;47690;39.202;-77.198;2023-03-23T16:52:06;5.97;;;5.35;;
50104;SDS011;47690;39.202;-77.198;2023-03-23T16:54:36;5.82;;;5.20;;
50104;SDS011;47690;39.202;-77.198;2023-03-23T16:57:06;6.70;;;5.32;;
50104;SDS011;47690;39.202;-77.198;2023-03-23T16:59:35;5.93;;;4.93;;
50104;SDS011;47690;39.202;-77.198;2023-03-23T17:02:08;6.30;;;5.15;;
50104;SDS011;47690;39.202;-77.198;2023-03-23T17:04:43;6.05;;;4.80;;
50104;SDS011;47690;39.202;-77.198;2023-03-23T17:07:14;6.57;;;5.43;;
50104;SDS011;47690;39.202;-77.198;2023-03-23T17:09:43;5.70;;;4.88;;
50104;SDS011;47690;39.202;-77.198;2023-03-23T17:12:14;6.53;;;4.97;;
50104;SDS011;47690;39.202;-77.198;2023-03-23T17:14:43;6.85;;;4.82;;
50104;SDS011;47690;39.202;-77.198;2023-03-23T17:17:12;7.85;;;5.13;;
50104;SDS011;47690;39.202;-77.198;2023-03-23T17:19:41;6.15;;;4.90;;
50104;SDS011;47690;39.202;-77.198;2023-03-23T17:22:11;6.93;;;5.13;;
50104;SDS011;47690;39.202;-77.198;2023-03-23T17:24:40;6.03;;;5.15;;
50104;SDS011;47690;39.202;-77.198;2023-03-23T17:27:09;5.85;;;4.97;;
50104;SDS011;47690;39.202;-77.198;2023-03-23T17:29:39;5.47;;;4.57;;
50104;SDS011;47690;39.202;-77.198;2023-03-23T17:32:09;5.57;;;4.70;;